Time;durP1;ratioP1;P1;durP2;ratioP2;P2;SDS_P1;SDS_P2;PMS_P1;PMS_P2;Temp;Humidity;BMP_temperature;BMP_pressure;BME280_temperature;BME280_humidity;BME280_pressure;Samples;Min_cycle;Max_cycle;Signal;HPM_P1;HPM_P2
2023/09/30 00:00:14;;;;;;;9.80;5.10;;;;;;;22.88;42.84;101836.52;107177;1254;25414;-57
2023/09/30 00:02:42;;;;;;;9.30;5.50;;;;;;;22.86;42.59;101832.02;106274;1265;1003046;-58
2023/09/30 00:05:10;;;;;;;9.90;5.90;;;;;;;22.85;42.65;101830.89;107029;1254;24028;-58
2023/09/30 00:07:37;;;;;;;9.10;5.40;;;;;;;22.83;42.42;101830.42;106928;1263;25344;-57
2023/09/30 00:10:04;;;;;;;7.90;5.20;;;;;;;22.82;42.63;101830.85;107063;1263;25343;-57
2023/09/30 00:12:32;;;;;;;7.70;5.80;;;;;;;22.80;42.34;101828.31;107176;1250;25353;-57
2023/09/30 00:14:59;;;;;;;8.90;5.40;;;;;;;22.78;42.13;101828.77;107166;1251;25356;-57
2023/09/30 00:17:26;;;;;;;12.80;6.10;;;;;;;22.76;41.67;101826.24;106293;1254;1015376;-57
2023/09/30 00:19:53;;;;;;;12.10;5.20;;;;;;;22.74;41.41;101826.02;107061;1254;25401;-58
2023/09/30 00:22:20;;;;;;;7.90;5.20;;;;;;;22.72;41.42;101821.86;107059;1251;24201;-57
2023/09/30 00:24:48;;;;;;;7.60;6.10;;;;;;;22.71;41.18;101822.82;107130;1250;25408;-57
2023/09/30 00:27:15;;;;;;;7.60;5.70;;;;;;;22.70;41.23;101825.91;107145;1251;25344;-57
2023/09/30 00:29:42;;;;;;;8.40;6.00;;;;;;;22.71;41.16;101829.02;106171;1258;1003025;-57
2023/09/30 00:32:09;;;;;;;8.60;5.50;;;;;;;22.72;41.09;101824.35;107185;1257;25433;-58
2023/09/30 00:34:37;;;;;;;9.80;5.80;;;;;;;22.72;41.27;101824.01;107157;1254;22556;-57
2023/09/30 00:37:04;;;;;;;10.20;6.40;;;;;;;22.68;41.65;101826.34;107176;1259;25344;-57
2023/09/30 00:39:35;;;;;;;10.00;5.50;;;;;;;22.66;41.84;101823.24;107174;1251;25350;-57
2023/09/30 00:42:04;;;;;;;6.80;4.90;;;;;;;22.66;42.18;101826.27;107094;1264;25392;-57
2023/09/30 00:44:31;;;;;;;11.00;5.80;;;;;;;22.65;42.16;101822.20;107085;1257;25411;-57
2023/09/30 00:46:58;;;;;;;14.60;6.10;;;;;;;22.65;42.36;101823.80;107075;1250;22534;-57
2023/09/30 00:49:25;;;;;;;8.00;5.30;;;;;;;22.63;42.14;101821.07;106830;1273;25402;-57
2023/09/30 00:51:54;;;;;;;12.50;5.70;;;;;;;22.62;41.66;101822.05;107137;1261;25392;-57
2023/09/30 00:54:22;;;;;;;6.90;5.50;;;;;;;22.60;41.58;101819.70;106827;1259;24300;-57
2023/09/30 00:56:51;;;;;;;10.00;5.90;;;;;;;22.58;41.89;101816.39;106826;1257;25344;-57
2023/09/30 00:59:18;;;;;;;8.70;5.60;;;;;;;22.64;41.46;101814.86;107039;1256;24344;-57
2023/09/30 01:01:45;;;;;;;9.40;5.50;;;;;;;22.64;40.89;101815.19;107063;1259;25369;-57
2023/09/30 01:04:12;;;;;;;8.70;4.90;;;;;;;22.63;41.01;101819.69;107078;1251;22538;-57
2023/09/30 01:06:42;;;;;;;9.70;5.10;;;;;;;22.60;41.23;101822.14;107014;1256;22577;-59
2023/09/30 01:09:09;;;;;;;10.70;5.60;;;;;;;22.55;41.32;101820.09;106908;1258;22524;-57
2023/09/30 01:11:36;;;;;;;10.30;5.60;;;;;;;22.53;41.04;101814.55;107050;1254;25487;-57
2023/09/30 01:14:04;;;;;;;6.20;5.00;;;;;;;22.51;40.64;101810.95;107097;1262;22537;-57
2023/09/30 01:16:31;;;;;;;10.60;5.30;;;;;;;22.49;40.54;101811.21;107133;1250;24398;-57
2023/09/30 01:18:58;;;;;;;11.40;5.30;;;;;;;22.48;40.47;101811.10;105392;1270;1003445;-58
2023/09/30 01:21:27;;;;;;;8.50;5.50;;;;;;;22.46;40.24;101807.83;107061;1251;25333;-57
2023/09/30 01:23:54;;;;;;;10.10;6.10;;;;;;;22.45;40.63;101809.30;107093;1254;25402;-57
2023/09/30 01:26:22;;;;;;;11.50;5.80;;;;;;;22.45;41.39;101807.89;107160;1257;25353;-57
2023/09/30 01:28:50;;;;;;;6.40;5.60;;;;;;;22.46;41.52;101807.69;107113;1254;25402;-57
2023/09/30 01:31:16;;;;;;;10.20;5.50;;;;;;;22.46;41.41;101806.25;107131;1250;22542;-57
2023/09/30 01:33:44;;;;;;;10.20;5.50;;;;;;;22.45;41.20;101809.84;107086;1254;23203;-57
2023/09/30 01:36:11;;;;;;;7.80;5.80;;;;;;;22.45;41.48;101805.10;107066;1253;25462;-57
2023/09/30 01:38:38;;;;;;;9.90;5.80;;;;;;;22.45;41.77;101806.34;107208;1266;25319;-57
2023/09/30 01:41:05;;;;;;;9.00;5.80;;;;;;;22.44;41.70;101806.00;107046;1258;25341;-57
2023/09/30 01:43:36;;;;;;;7.00;6.10;;;;;;;22.44;41.34;101805.70;107091;1260;22533;-57
2023/09/30 01:46:05;;;;;;;9.70;6.40;;;;;;;22.44;41.79;101809.73;106817;1267;25379;-57
2023/09/30 01:48:32;;;;;;;11.50;6.30;;;;;;;22.49;42.28;101809.27;106878;1266;25353;-57
2023/09/30 01:50:59;;;;;;;10.40;5.80;;;;;;;22.55;42.09;101814.27;106793;1273;25356;-57
2023/09/30 01:53:26;;;;;;;8.30;5.70;;;;;;;22.58;42.54;101816.08;107307;1252;25445;-57
2023/09/30 01:55:53;;;;;;;7.70;5.50;;;;;;;22.58;42.48;101810.56;107144;1250;22536;-58
2023/09/30 01:58:20;;;;;;;7.00;5.80;;;;;;;22.59;42.16;101811.77;107073;1267;25306;-58
2023/09/30 02:00:47;;;;;;;10.90;6.00;;;;;;;22.59;42.35;101808.92;107086;1263;25230;-57
2023/09/30 02:03:15;;;;;;;8.20;5.60;;;;;;;22.59;42.54;101806.29;107143;1251;25484;-57
2023/09/30 02:05:43;;;;;;;8.20;5.70;;;;;;;22.60;42.55;101808.86;107078;1254;25344;-57
2023/09/30 02:08:10;;;;;;;12.50;6.40;;;;;;;22.61;42.96;101808.84;107164;1251;22520;-57
2023/09/30 02:10:37;;;;;;;8.40;5.40;;;;;;;22.60;43.13;101812.41;106820;1257;25362;-57
2023/09/30 02:13:06;;;;;;;8.00;6.50;;;;;;;22.60;43.14;101812.77;107035;1251;25424;-57
2023/09/30 02:15:34;;;;;;;9.60;6.50;;;;;;;22.58;43.32;101815.86;107176;1266;25474;-57
2023/09/30 02:18:01;;;;;;;13.90;6.30;;;;;;;22.56;43.18;101816.34;106920;1254;25452;-57
2023/09/30 02:20:30;;;;;;;9.00;5.80;;;;;;;22.54;43.02;101811.50;107107;1251;22673;-57
2023/09/30 02:22:58;;;;;;;8.90;6.10;;;;;;;22.52;43.14;101816.71;107158;1260;25408;-58
2023/09/30 02:25:25;;;;;;;6.30;5.70;;;;;;;22.51;43.40;101815.19;107017;1255;27518;-57
2023/09/30 02:27:52;;;;;;;9.60;6.20;;;;;;;22.49;43.22;101813.69;107111;1257;25413;-57
2023/09/30 02:30:20;;;;;;;10.80;5.70;;;;;;;22.48;42.99;101811.13;107083;1257;25370;-57
2023/09/30 02:32:47;;;;;;;9.60;5.80;;;;;;;22.46;43.06;101813.68;107067;1263;25619;-57
2023/09/30 02:35:15;;;;;;;11.80;6.30;;;;;;;22.45;42.95;101814.63;107092;1254;22611;-57
2023/09/30 02:37:42;;;;;;;12.60;6.40;;;;;;;22.43;42.57;101818.11;106864;1258;25341;-57
2023/09/30 02:40:10;;;;;;;8.30;6.10;;;;;;;22.43;42.82;101817.23;107199;1254;25471;-58
2023/09/30 02:42:38;;;;;;;8.60;6.40;;;;;;;22.48;42.69;101819.61;106829;1257;24538;-57
2023/09/30 02:45:06;;;;;;;11.90;6.50;;;;;;;22.48;42.53;101822.24;106945;1257;22517;-57
2023/09/30 02:47:33;;;;;;;8.90;6.10;;;;;;;22.46;42.07;101811.75;106911;1257;25411;-57
2023/09/30 02:50:01;;;;;;;7.80;6.20;;;;;;;22.44;41.68;101810.26;107124;1267;25341;-58
2023/09/30 02:52:31;;;;;;;12.10;7.10;;;;;;;22.42;41.54;101809.64;106748;1260;25487;-57
2023/09/30 02:54:58;;;;;;;7.10;6.30;;;;;;;22.40;40.92;101811.56;107103;1253;25325;-57
2023/09/30 02:57:27;;;;;;;9.80;6.40;;;;;;;22.35;40.88;101812.89;107047;1263;22550;-57
2023/09/30 02:59:56;;;;;;;8.00;6.40;;;;;;;22.33;41.08;101813.90;106888;1260;25363;-57
2023/09/30 03:02:23;;;;;;;14.60;7.20;;;;;;;22.28;41.44;101809.18;107121;1252;25395;-57
2023/09/30 03:04:51;;;;;;;7.20;6.30;;;;;;;22.26;41.56;101812.29;106896;1262;25440;-58
2023/09/30 03:07:19;;;;;;;9.00;6.40;;;;;;;22.27;41.74;101813.12;107162;1254;25510;-57
2023/09/30 03:09:46;;;;;;;11.40;6.60;;;;;;;22.26;41.19;101813.04;107135;1266;25220;-57
2023/09/30 03:12:14;;;;;;;12.60;6.80;;;;;;;22.23;41.01;101806.66;107208;1251;25398;-57
2023/09/30 03:14:42;;;;;;;10.40;7.00;;;;;;;22.19;40.67;101810.58;107110;1257;22632;-57
2023/09/30 03:17:12;;;;;;;11.60;6.90;;;;;;;22.16;40.24;101809.88;107110;1254;25362;-57
2023/09/30 03:19:40;;;;;;;8.80;6.40;;;;;;;22.15;40.45;101809.02;106848;1259;24212;-58
2023/09/30 03:22:10;;;;;;;8.80;6.70;;;;;;;22.11;41.03;101808.52;106796;1259;22602;-57
2023/09/30 03:24:39;;;;;;;10.10;6.50;;;;;;;22.07;41.21;101808.54;106753;1259;25512;-57
2023/09/30 03:27:07;;;;;;;12.00;7.30;;;;;;;22.05;41.04;101808.69;103813;1273;1003616;-57
2023/09/30 03:29:36;;;;;;;12.00;7.70;;;;;;;22.03;41.40;101809.66;106767;1256;24282;-57
2023/09/30 03:32:04;;;;;;;7.20;6.50;;;;;;;22.01;41.66;101808.16;106847;1267;25278;-57
2023/09/30 03:34:31;;;;;;;7.70;6.80;;;;;;;22.01;41.75;101806.09;106881;1256;24209;-57
2023/09/30 03:37:01;;;;;;;9.60;7.10;;;;;;;22.00;41.80;101804.02;106706;1270;25392;-57
2023/09/30 03:39:28;;;;;;;9.10;7.00;;;;;;;21.98;41.62;101806.41;106742;1267;25415;-57
2023/09/30 03:41:56;;;;;;;9.20;7.10;;;;;;;21.97;41.47;101807.54;106799;1259;25429;-58
2023/09/30 03:44:23;;;;;;;10.10;6.80;;;;;;;21.92;41.47;101810.98;106389;1262;25411;-59
2023/09/30 03:46:51;;;;;;;11.00;6.90;;;;;;;21.85;41.53;101810.63;106729;1272;25331;-57
2023/09/30 03:49:21;;;;;;;8.80;7.20;;;;;;;21.82;41.89;101816.98;106754;1257;25516;-57
2023/09/30 03:51:50;;;;;;;9.20;7.20;;;;;;;21.85;42.02;101815.55;106780;1270;25412;-57
2023/09/30 03:54:20;;;;;;;9.90;6.50;;;;;;;21.87;42.04;101816.36;106963;1269;25484;-57
2023/09/30 03:56:48;;;;;;;11.50;7.00;;;;;;;21.88;42.08;101812.23;107086;1254;25850;-59
2023/09/30 03:59:15;;;;;;;10.00;7.20;;;;;;;21.87;42.02;101809.43;107128;1263;25334;-57
2023/09/30 04:01:44;;;;;;;10.50;6.70;;;;;;;21.85;41.83;101811.66;104789;1254;1003089;-56
2023/09/30 04:04:11;;;;;;;8.00;6.40;;;;;;;21.84;41.85;101812.98;106875;1257;25401;-58
2023/09/30 04:06:38;;;;;;;13.00;6.70;;;;;;;21.81;42.09;101819.80;107192;1260;25359;-59
2023/09/30 04:09:09;;;;;;;11.50;7.10;;;;;;;21.81;42.38;101819.81;107176;1250;25430;-59
2023/09/30 04:11:37;;;;;;;14.00;7.20;;;;;;;21.80;42.13;101820.05;107186;1254;25334;-58
2023/09/30 04:14:07;;;;;;;11.20;6.70;;;;;;;21.78;41.99;101819.41;107124;1250;25337;-58
2023/09/30 04:16:35;;;;;;;10.00;7.00;;;;;;;21.77;41.99;101820.89;107145;1261;25362;-58
2023/09/30 04:19:02;;;;;;;10.70;7.10;;;;;;;21.76;41.89;101820.92;106887;1267;25334;-59
2023/09/30 04:21:30;;;;;;;10.90;7.00;;;;;;;21.76;42.26;101820.79;107196;1253;24432;-58
2023/09/30 04:23:57;;;;;;;11.00;7.00;;;;;;;21.77;42.54;101819.85;106827;1256;25151;-59
2023/09/30 04:26:25;;;;;;;9.80;7.00;;;;;;;21.77;42.84;101821.79;106804;1259;25411;-58
2023/09/30 04:28:53;;;;;;;9.00;7.50;;;;;;;21.78;42.80;101822.29;107035;1257;25330;-58
2023/09/30 04:31:23;;;;;;;7.80;7.00;;;;;;;21.78;42.90;101821.05;107184;1250;24079;-58
2023/09/30 04:33:51;;;;;;;7.60;6.70;;;;;;;21.78;43.03;101821.00;107182;1266;22531;-58
2023/09/30 04:36:19;;;;;;;9.50;7.40;;;;;;;21.78;42.80;101819.59;107095;1254;25402;-59
2023/09/30 04:38:47;;;;;;;10.10;7.10;;;;;;;21.79;42.84;101823.63;107121;1254;23889;-58
2023/09/30 04:41:15;;;;;;;12.70;7.10;;;;;;;21.79;42.93;101826.27;106893;1259;25481;-58
2023/09/30 04:43:43;;;;;;;12.20;6.60;;;;;;;21.80;43.26;101828.88;107208;1254;25519;-58
2023/09/30 04:46:12;;;;;;;11.30;6.40;;;;;;;21.81;43.33;101830.74;107039;1254;25362;-59
2023/09/30 04:48:40;;;;;;;11.60;7.20;;;;;;;21.83;43.47;101828.03;107088;1254;22653;-59
2023/09/30 04:51:08;;;;;;;11.60;6.90;;;;;;;21.84;43.19;101829.02;107092;1251;25513;-58
2023/09/30 04:53:35;;;;;;;11.10;6.80;;;;;;;21.86;43.47;101830.02;107118;1258;22519;-58
2023/09/30 04:56:03;;;;;;;12.00;7.10;;;;;;;21.88;44.12;101832.91;107107;1254;25564;-58
2023/09/30 04:58:31;;;;;;;7.60;6.60;;;;;;;21.91;44.46;101834.36;107119;1254;25401;-59
2023/09/30 05:00:58;;;;;;;9.50;6.30;;;;;;;21.94;44.40;101827.27;107098;1252;25239;-61
2023/09/30 05:03:25;;;;;;;8.00;7.10;;;;;;;21.98;44.18;101829.38;107062;1259;22631;-59
2023/09/30 05:05:56;;;;;;;13.50;6.60;;;;;;;22.02;44.20;101830.94;107082;1263;25484;-58
2023/09/30 05:08:24;;;;;;;13.90;7.50;;;;;;;22.04;44.24;101833.10;107113;1251;25362;-58
2023/09/30 05:10:55;;;;;;;9.20;6.60;;;;;;;22.10;44.42;101835.12;107112;1257;25401;-58
2023/09/30 05:13:23;;;;;;;10.00;7.70;;;;;;;22.14;44.58;101835.06;107106;1251;25334;-59
2023/09/30 05:15:51;;;;;;;8.30;6.30;;;;;;;22.18;44.77;101839.98;107136;1254;25433;-59
2023/09/30 05:18:18;;;;;;;8.40;7.50;;;;;;;22.20;44.65;101841.09;106332;1254;1003012;-59
2023/09/30 05:20:46;;;;;;;15.80;7.60;;;;;;;22.23;44.56;101839.20;107131;1254;25315;-57
2023/09/30 05:23:14;;;;;;;8.30;7.30;;;;;;;22.26;44.42;101840.61;107122;1254;25341;-59
2023/09/30 05:25:42;;;;;;;12.60;6.70;;;;;;;22.28;44.23;101841.02;106823;1257;24376;-59
2023/09/30 05:28:11;;;;;;;9.20;6.50;;;;;;;22.32;43.94;101839.94;107227;1254;22520;-58
2023/09/30 05:30:39;;;;;;;11.00;6.40;;;;;;;22.31;43.65;101840.33;107200;1250;25322;-58
2023/09/30 05:33:07;;;;;;;12.40;6.60;;;;;;;22.29;43.74;101839.71;107090;1260;25362;-59
2023/09/30 05:35:34;;;;;;;13.10;6.90;;;;;;;22.30;44.01;101837.02;107033;1254;25355;-58
2023/09/30 05:38:03;;;;;;;9.30;6.90;;;;;;;22.31;44.50;101835.91;106894;1269;25325;-59
2023/09/30 05:40:31;;;;;;;8.10;6.90;;;;;;;22.31;44.39;101839.61;107319;1255;23191;-60
2023/09/30 05:42:59;;;;;;;13.20;7.00;;;;;;;22.33;44.76;101839.89;106850;1274;25334;-60
2023/09/30 05:45:27;;;;;;;9.50;7.10;;;;;;;22.35;44.90;101839.23;107520;1250;25325;-60
2023/09/30 05:47:57;;;;;;;10.30;6.50;;;;;;;22.35;44.80;101840.62;106920;1254;25498;-60
2023/09/30 05:50:26;;;;;;;10.10;7.00;;;;;;;22.39;45.08;101842.19;107039;1255;22596;-59
2023/09/30 05:52:54;;;;;;;9.60;6.70;;;;;;;22.44;45.56;101840.30;107065;1256;25362;-59
2023/09/30 05:55:22;;;;;;;8.90;7.10;;;;;;;22.50;45.67;101841.94;107188;1254;22523;-60
2023/09/30 05:57:52;;;;;;;10.20;6.70;;;;;;;22.56;45.48;101837.73;107178;1253;25839;-59
2023/09/30 06:00:30;;;;;;;11.50;6.60;;;;;;;22.64;45.10;101838.39;107163;1259;25356;-60
2023/09/30 06:02:57;;;;;;;8.70;7.10;;;;;;;22.73;45.05;101838.29;107328;1254;25352;-60
2023/09/30 06:05:30;;;;;;;13.20;6.90;;;;;;;22.80;44.83;101838.54;107131;1251;25414;-60
2023/09/30 06:07:57;;;;;;;7.90;7.10;;;;;;;22.92;44.68;101834.33;107151;1251;23852;-60
2023/09/30 06:10:25;;;;;;;12.90;6.90;;;;;;;23.02;44.65;101838.39;107088;1251;25522;-60
2023/09/30 06:12:54;;;;;;;12.30;7.50;;;;;;;23.12;44.27;101840.48;106368;1261;1002985;-60
2023/09/30 06:15:25;;;;;;;10.30;6.50;;;;;;;23.20;44.01;101842.48;107282;1251;22524;-60
2023/09/30 06:17:53;;;;;;;9.90;6.90;;;;;;;23.27;44.06;101840.98;107424;1254;25362;-60
2023/09/30 06:20:22;;;;;;;7.60;6.50;;;;;;;23.36;44.55;101844.08;107221;1254;25325;-60
2023/09/30 06:22:49;;;;;;;11.10;6.90;;;;;;;23.44;44.54;101844.31;107121;1263;24247;-60
2023/09/30 06:25:17;;;;;;;8.20;7.00;;;;;;;23.52;44.40;101842.56;107182;1254;23774;-60
2023/09/30 06:27:45;;;;;;;9.90;7.00;;;;;;;23.60;44.28;101844.97;106956;1274;25379;-60
2023/09/30 06:30:15;;;;;;;12.80;7.20;;;;;;;23.62;44.31;101845.69;107166;1263;25399;-60
2023/09/30 06:32:42;;;;;;;10.50;6.50;;;;;;;23.72;44.03;101848.13;107352;1255;25243;-61
2023/09/30 06:35:10;;;;;;;8.70;6.70;;;;;;;23.77;44.28;101846.79;107558;1254;25362;-60
2023/09/30 06:37:37;;;;;;;10.30;7.10;;;;;;;23.86;45.03;101846.37;106819;1262;25325;-60
2023/09/30 06:40:09;;;;;;;9.20;6.60;;;;;;;23.96;45.62;101841.13;106972;1256;23375;-60
2023/09/30 06:42:36;;;;;;;10.00;6.80;;;;;;;24.04;45.61;101838.55;106765;1267;22527;-59
2023/09/30 06:45:05;;;;;;;10.10;6.80;;;;;;;24.15;45.59;101846.20;107134;1266;25356;-58
2023/09/30 06:47:33;;;;;;;9.60;6.80;;;;;;;24.21;45.67;101849.90;107078;1254;25494;-58
2023/09/30 06:50:07;;;;;;;8.60;6.80;;;;;;;24.33;45.63;101848.88;107399;1254;25452;-59
2023/09/30 06:52:39;;;;;;;12.50;6.70;;;;;;;24.44;45.49;101844.83;107078;1269;25482;-59
2023/09/30 06:55:07;;;;;;;8.60;7.00;;;;;;;24.54;45.29;101845.79;107017;1259;25315;-59
2023/09/30 06:57:37;;;;;;;9.10;6.70;;;;;;;24.62;45.42;101840.60;107187;1260;22524;-59
2023/09/30 07:00:08;;;;;;;12.80;6.70;;;;;;;24.68;45.70;101838.63;107308;1256;26544;-59
2023/09/30 07:02:36;;;;;;;9.10;7.50;;;;;;;24.75;45.80;101839.27;107333;1260;23248;-59
2023/09/30 07:05:13;;;;;;;11.40;7.20;;;;;;;24.81;45.81;101840.83;107234;1254;25414;-59
2023/09/30 07:07:43;;;;;;;9.60;7.10;;;;;;;24.88;45.90;101842.34;106817;1259;25379;-59
2023/09/30 07:10:11;;;;;;;8.40;7.00;;;;;;;24.96;45.70;101841.30;107065;1254;22527;-59
2023/09/30 07:12:39;;;;;;;11.00;8.00;;;;;;;25.01;45.19;101839.36;107184;1251;25331;-60
2023/09/30 07:15:06;;;;;;;10.50;6.90;;;;;;;25.04;45.02;101841.99;107122;1256;22527;-59
2023/09/30 07:17:33;;;;;;;10.00;6.90;;;;;;;25.08;44.72;101841.23;107351;1260;25334;-60
2023/09/30 07:20:02;;;;;;;12.60;7.20;;;;;;;25.10;44.48;101841.29;107216;1256;23831;-59
2023/09/30 07:22:29;;;;;;;10.80;7.50;;;;;;;25.13;44.42;101841.98;106960;1257;22538;-59
2023/09/30 07:24:59;;;;;;;9.80;6.90;;;;;;;25.18;44.48;101842.70;107106;1254;25452;-59
2023/09/30 07:27:26;;;;;;;11.80;7.00;;;;;;;25.23;44.38;101841.10;107179;1257;25334;-59
2023/09/30 07:29:55;;;;;;;9.70;6.80;;;;;;;25.25;44.07;101842.75;107455;1260;22579;-59
2023/09/30 07:32:23;;;;;;;8.60;7.10;;;;;;;25.30;43.63;101843.67;107454;1257;25455;-59
2023/09/30 07:34:51;;;;;;;8.70;7.10;;;;;;;25.31;43.61;101847.48;107315;1251;25353;-60
2023/09/30 07:37:19;;;;;;;11.20;7.70;;;;;;;25.34;43.44;101846.38;107112;1256;22523;-59
2023/09/30 07:39:46;;;;;;;8.80;7.00;;;;;;;25.38;43.26;101847.73;106998;1260;24119;-60
2023/09/30 07:42:13;;;;;;;11.10;8.00;;;;;;;25.39;43.11;101848.05;106917;1259;25452;-59
2023/09/30 07:44:41;;;;;;;11.60;7.20;;;;;;;25.43;43.29;101847.64;106764;1269;25372;-59
2023/09/30 07:47:11;;;;;;;9.40;7.60;;;;;;;25.43;43.43;101848.70;107098;1263;22523;-59
2023/09/30 07:49:38;;;;;;;9.10;7.50;;;;;;;25.42;43.38;101843.74;107194;1254;25455;-59
2023/09/30 07:52:05;;;;;;;7.90;6.90;;;;;;;25.48;43.13;101846.77;107030;1257;25459;-58
2023/09/30 07:54:32;;;;;;;10.70;7.30;;;;;;;25.47;43.27;101845.05;106891;1257;25363;-58
2023/09/30 07:56:59;;;;;;;11.60;6.70;;;;;;;25.51;43.02;101847.06;107023;1260;24194;-59
2023/09/30 07:59:27;;;;;;;12.30;7.20;;;;;;;25.50;43.20;101851.93;106770;1251;24222;-59
2023/09/30 08:01:54;;;;;;;8.20;7.40;;;;;;;25.51;43.15;101853.65;106832;1263;25375;-59
2023/09/30 08:04:21;;;;;;;10.30;7.60;;;;;;;25.52;42.96;101858.14;107049;1254;25362;-59
2023/09/30 08:06:50;;;;;;;11.40;7.80;;;;;;;25.57;43.00;101856.98;107063;1254;25384;-59
2023/09/30 08:09:18;;;;;;;9.20;7.00;;;;;;;25.61;42.96;101858.83;107068;1250;22895;-60
2023/09/30 08:11:45;;;;;;;12.00;6.80;;;;;;;25.64;42.82;101860.75;107069;1254;25363;-60
2023/09/30 08:14:12;;;;;;;9.00;7.00;;;;;;;25.66;42.96;101860.27;107103;1255;25479;-60
2023/09/30 08:16:40;;;;;;;12.30;7.30;;;;;;;25.69;42.80;101861.30;107030;1257;25455;-60
2023/09/30 08:19:07;;;;;;;13.00;7.90;;;;;;;25.74;43.13;101861.67;105766;1254;1003023;-60
2023/09/30 08:21:34;;;;;;;11.60;7.80;;;;;;;25.81;43.09;101865.27;107173;1254;25459;-60
2023/09/30 08:24:02;;;;;;;9.00;7.70;;;;;;;25.86;42.89;101864.05;107055;1257;25353;-59
2023/09/30 08:26:29;;;;;;;10.20;7.90;;;;;;;25.90;42.95;101861.50;107016;1251;22585;-60
2023/09/30 08:28:57;;;;;;;9.70;8.00;;;;;;;25.93;42.88;101861.27;107014;1254;25568;-61
2023/09/30 08:31:25;;;;;;;12.00;7.90;;;;;;;25.96;42.88;101862.13;107259;1256;24241;-60
2023/09/30 08:33:52;;;;;;;12.60;7.90;;;;;;;25.98;43.04;101862.34;107112;1254;22541;-60
2023/09/30 08:36:19;;;;;;;9.70;7.90;;;;;;;26.01;43.14;101860.00;107329;1254;25487;-60
2023/09/30 08:38:47;;;;;;;9.70;8.20;;;;;;;26.05;43.26;101858.48;106964;1259;22606;-59
2023/09/30 08:41:34;;;;;;;11.00;7.80;;;;;;;26.09;43.07;101859.88;106808;1259;25487;-59
2023/09/30 08:44:02;;;;;;;11.60;8.10;;;;;;;26.10;43.38;101854.29;106918;1253;24046;-60
2023/09/30 08:46:31;;;;;;;10.50;7.70;;;;;;;26.13;43.29;101858.15;107184;1255;24253;-60
2023/09/30 08:49:08;;;;;;;16.00;7.40;;;;;;;26.08;43.27;101860.45;106943;1264;25388;-60
2023/09/30 08:51:36;;;;;;;9.30;7.20;;;;;;;26.10;43.19;101856.04;107658;1256;25343;-60
2023/09/30 08:54:05;;;;;;;9.90;7.50;;;;;;;26.12;43.25;101855.70;107132;1257;25487;-60
2023/09/30 08:56:35;;;;;;;9.50;7.40;;;;;;;26.12;43.37;101857.34;107170;1254;22534;-60
2023/09/30 08:59:03;;;;;;;13.50;7.40;;;;;;;26.16;43.33;101850.97;107003;1263;25455;-60
2023/09/30 09:01:30;;;;;;;10.10;6.80;;;;;;;26.20;43.06;101849.27;107227;1256;25366;-60
2023/09/30 09:03:58;;;;;;;12.10;7.80;;;;;;;26.24;43.02;101849.55;107123;1254;22546;-60
2023/09/30 09:06:26;;;;;;;10.20;7.20;;;;;;;26.35;42.94;101845.38;107234;1255;23985;-60
2023/09/30 09:08:53;;;;;;;13.00;7.60;;;;;;;26.41;42.90;101849.91;107047;1256;25315;-60
2023/09/30 09:11:20;;;;;;;11.00;7.20;;;;;;;26.46;42.86;101846.36;107114;1263;25452;-60
2023/09/30 09:13:49;;;;;;;10.00;7.10;;;;;;;26.50;42.90;101848.92;107324;1259;25446;-60
2023/09/30 09:16:20;;;;;;;13.20;6.70;;;;;;;26.53;42.46;101845.51;107315;1256;25484;-60
2023/09/30 09:18:47;;;;;;;18.00;8.60;;;;;;;26.54;42.35;101850.05;107013;1259;24198;-61
2023/09/30 09:21:15;;;;;;;10.50;7.60;;;;;;;26.54;42.21;101850.55;106775;1273;25379;-61
2023/09/30 09:23:44;;;;;;;9.90;7.50;;;;;;;26.53;42.22;101852.63;107026;1266;25248;-60
2023/09/30 09:26:38;;;;;;;8.90;7.00;;;;;;;26.51;42.50;101852.21;107078;1254;22522;-61
2023/09/30 09:29:05;;;;;;;16.10;8.00;;;;;;;26.53;42.56;101852.41;107046;1251;25386;-62
2023/09/30 09:31:36;;;;;;;13.50;7.50;;;;;;;26.58;42.26;101849.74;107443;1254;25255;-61
2023/09/30 09:34:04;;;;;;;14.00;7.00;;;;;;;26.56;42.35;101848.98;107047;1255;25387;-61
2023/09/30 09:36:41;;;;;;;13.90;7.30;;;;;;;26.53;42.37;101848.34;107240;1257;24186;-60
2023/09/30 09:39:12;;;;;;;11.60;7.10;;;;;;;26.51;42.35;101846.69;107158;1256;22639;-60
2023/09/30 09:41:53;;;;;;;10.10;7.40;;;;;;;26.48;42.62;101847.80;107408;1250;25382;-61
2023/09/30 09:44:21;;;;;;;8.10;7.00;;;;;;;26.44;42.99;101846.82;107607;1254;22538;-61
2023/09/30 09:46:50;;;;;;;11.20;7.50;;;;;;;26.41;42.95;101847.95;107421;1251;24314;-60
2023/09/30 09:49:17;;;;;;;9.80;6.90;;;;;;;26.38;43.00;101844.98;107504;1256;22527;-60
2023/09/30 09:51:48;;;;;;;11.10;8.30;;;;;;;26.35;42.99;101844.30;107533;1257;25367;-61
2023/09/30 09:54:17;;;;;;;13.10;7.70;;;;;;;26.36;43.17;101840.34;107477;1253;22990;-61
2023/09/30 09:56:44;;;;;;;10.50;7.60;;;;;;;26.39;43.42;101843.09;107466;1256;22602;-60
2023/09/30 09:59:12;;;;;;;12.30;7.40;;;;;;;26.45;43.64;101839.99;107261;1260;23477;-61
2023/09/30 10:01:40;;;;;;;12.10;7.30;;;;;;;26.54;43.65;101838.83;107093;1256;24193;-60
2023/09/30 10:04:07;;;;;;;8.90;7.00;;;;;;;26.63;43.33;101838.51;106838;1266;24357;-61
2023/09/30 10:06:38;;;;;;;10.90;6.50;;;;;;;26.73;43.17;101835.52;106478;1253;1003609;-61
2023/09/30 10:09:10;;;;;;;9.90;6.70;;;;;;;26.82;43.29;101831.29;107332;1256;25455;-60
2023/09/30 10:11:39;;;;;;;10.00;6.80;;;;;;;26.89;43.32;101833.65;107250;1260;22524;-60
2023/09/30 10:14:12;;;;;;;11.10;7.10;;;;;;;26.95;43.55;101831.04;107029;1263;22536;-60
2023/09/30 10:16:40;;;;;;;11.50;7.20;;;;;;;27.02;43.48;101829.98;107280;1253;23573;-61
2023/09/30 10:19:14;;;;;;;12.00;7.30;;;;;;;27.06;43.20;101830.02;107567;1259;24324;-61
2023/09/30 10:22:21;;;;;;;8.20;7.00;;;;;;;27.10;43.03;101827.42;106934;1261;29390;-60
2023/09/30 10:24:50;;;;;;;8.80;7.30;;;;;;;27.09;42.74;101822.89;106804;1273;25465;-60
2023/09/30 10:27:32;;;;;;;11.30;7.80;;;;;;;27.08;42.94;101821.52;106685;1260;24492;-60
2023/09/30 10:30:09;;;;;;;10.60;7.20;;;;;;;27.11;43.10;101820.78;106901;1257;23109;-61
2023/09/30 10:32:56;;;;;;;9.20;7.00;;;;;;;27.17;43.11;101821.03;107058;1257;25350;-60
2023/09/30 10:35:26;;;;;;;14.20;8.00;;;;;;;27.26;43.08;101816.59;106913;1262;25402;-60
2023/09/30 10:38:22;;;;;;;12.20;7.30;;;;;;;27.34;42.84;101816.91;107233;1260;25417;-61
2023/09/30 10:40:50;;;;;;;9.70;7.00;;;;;;;27.40;42.85;101812.73;107159;1260;25369;-60
2023/09/30 10:43:30;;;;;;;10.80;7.80;;;;;;;27.47;42.84;101811.33;107063;1264;25621;-61
2023/09/30 10:45:58;;;;;;;13.50;7.70;;;;;;;27.52;42.58;101815.27;106752;1263;22529;-60
2023/09/30 10:48:25;;;;;;;12.90;8.20;;;;;;;27.54;42.68;101818.09;106518;1272;25334;-60
2023/09/30 10:50:55;;;;;;;10.60;8.30;;;;;;;27.57;42.89;101819.46;106876;1257;22930;-61
2023/09/30 10:53:22;;;;;;;11.30;7.90;;;;;;;27.60;42.92;101820.34;106789;1263;25644;-60
2023/09/30 10:55:59;;;;;;;10.20;8.10;;;;;;;27.61;42.59;101819.71;106738;1259;25335;-56
2023/09/30 10:58:46;;;;;;;12.90;8.40;;;;;;;27.60;42.63;101822.06;107134;1257;25353;-61
2023/09/30 11:01:20;;;;;;;10.50;8.00;;;;;;;27.54;42.30;101819.14;107026;1253;23310;-58
2023/09/30 11:03:50;;;;;;;15.90;8.80;;;;;;;27.44;42.44;101818.49;107414;1254;24206;-60
2023/09/30 11:06:20;;;;;;;11.30;8.90;;;;;;;27.40;42.77;101815.61;107444;1256;22791;-60
2023/09/30 11:08:53;;;;;;;11.20;8.20;;;;;;;27.37;43.01;101812.61;107569;1256;22511;-60
2023/09/30 11:11:37;;;;;;;10.70;8.10;;;;;;;27.35;42.94;101814.71;107388;1266;23889;-59
2023/09/30 11:14:06;;;;;;;13.70;9.00;;;;;;;27.32;42.92;101812.90;107234;1263;25405;-59
2023/09/30 11:16:45;;;;;;;12.80;8.80;;;;;;;27.31;42.58;101811.23;107257;1254;25366;-59
2023/09/30 11:19:12;;;;;;;14.50;8.90;;;;;;;27.30;42.46;101810.44;107211;1256;25488;-59